createdAt,value
2019-05-26T00:04:57.277Z,14.28
2019-05-26T00:10:01.487Z,6.17
2019-05-26T00:15:06.187Z,7.78
2019-05-26T00:20:10.960Z,9.60
2019-05-26T00:25:15.603Z,8.08
2019-05-26T00:30:20.410Z,11.10
2019-05-26T00:35:24.607Z,6.97
2019-05-26T00:40:28.806Z,14.18
2019-05-26T00:45:33.225Z,7.22
2019-05-26T00:50:37.449Z,8.15
2019-05-26T00:55:41.628Z,8.45
2019-05-26T01:00:46.019Z,9.85
2019-05-26T01:05:50.233Z,8.13
2019-05-26T01:10:54.421Z,8.18
2019-05-26T01:15:58.629Z,13.25
2019-05-26T01:21:02.827Z,9.45
2019-05-26T01:26:07.072Z,6.37
2019-05-26T01:31:11.321Z,11.83
2019-05-26T01:36:15.911Z,9.28
2019-05-26T01:41:20.163Z,14.05
2019-05-26T01:46:24.357Z,8.95
2019-05-26T01:51:28.541Z,9.05
2019-05-26T01:56:32.750Z,16.82
2019-05-26T02:01:36.957Z,10.55
2019-05-26T02:06:41.152Z,9.70
2019-05-26T02:11:45.370Z,9.43
2019-05-26T02:16:49.569Z,8.68
2019-05-26T02:21:53.805Z,10.78
2019-05-26T02:26:58.041Z,7.55
2019-05-26T02:32:02.239Z,11.28
2019-05-26T02:37:06.454Z,12.33
2019-05-26T02:42:10.923Z,11.80
2019-05-26T02:47:15.114Z,19.20
2019-05-26T02:52:19.332Z,10.45
2019-05-26T02:57:23.504Z,7.80
2019-05-26T03:02:27.939Z,9.60
2019-05-26T03:07:33.141Z,10.80
2019-05-26T03:12:41.816Z,12.03
2019-05-26T03:17:47.792Z,13.22
2019-05-26T03:22:54.155Z,11.03
2019-05-26T03:27:58.364Z,10.70
2019-05-26T03:33:02.807Z,10.08
2019-05-26T03:38:06.999Z,9.53
2019-05-26T03:43:11.194Z,11.08
2019-05-26T03:48:15.424Z,13.78
2019-05-26T03:53:19.613Z,12.75
2019-05-26T03:58:23.819Z,16.90
2019-05-26T04:03:28.203Z,11.50
2019-05-26T04:08:32.400Z,9.38
2019-05-26T04:13:36.594Z,11.12
2019-05-26T04:18:40.891Z,15.28
2019-05-26T04:23:45.084Z,13.30
2019-05-26T04:28:49.322Z,13.28
2019-05-26T04:33:53.547Z,13.35
2019-05-26T04:38:57.774Z,10.78
2019-05-26T04:44:01.972Z,13.98
2019-05-26T04:49:06.171Z,13.68
2019-05-26T04:54:10.361Z,15.80
2019-05-26T04:59:14.699Z,15.93
2019-05-26T05:04:18.897Z,16.07
2019-05-26T05:09:23.091Z,11.35
2019-05-26T05:14:27.283Z,16.02
2019-05-26T05:19:31.489Z,13.18
2019-05-26T05:24:35.706Z,19.48
2019-05-26T05:29:39.913Z,14.78
2019-05-26T05:34:44.096Z,18.12
2019-05-26T05:39:48.292Z,16.07
2019-05-26T05:44:52.489Z,12.80
2019-05-26T05:49:56.667Z,14.38
2019-05-26T05:55:00.870Z,16.62
2019-05-26T06:00:06.469Z,15.23
2019-05-26T06:05:10.957Z,11.73
2019-05-26T06:10:15.575Z,17.92
2019-05-26T06:15:19.833Z,14.43
2019-05-26T06:20:24.067Z,12.05
2019-05-26T06:25:28.324Z,13.35
2019-05-26T06:30:32.526Z,11.68
2019-05-26T06:35:36.793Z,12.98
2019-05-26T06:40:41.115Z,12.60
2019-05-26T06:45:45.317Z,10.78
2019-05-26T06:50:49.513Z,10.50
2019-05-26T06:55:53.748Z,13.75
2019-05-26T07:00:57.915Z,10.65
2019-05-26T07:06:02.136Z,18.07
2019-05-26T07:11:06.415Z,9.38
2019-05-26T07:16:10.636Z,9.15
2019-05-26T07:21:14.898Z,8.40
2019-05-26T07:26:19.126Z,5.28
2019-05-26T07:31:23.346Z,7.22
2019-05-26T07:36:27.550Z,10.32
2019-05-26T07:41:31.759Z,5.37
2019-05-26T07:46:36.007Z,7.17
2019-05-26T07:51:40.215Z,5.72
2019-05-26T07:56:44.452Z,8.98
2019-05-26T08:01:48.691Z,9.83
2019-05-26T08:06:52.905Z,7.37
2019-05-26T08:11:57.119Z,3.95
2019-05-26T08:17:01.374Z,8.58
2019-05-26T08:22:05.582Z,9.28
2019-05-26T08:27:09.788Z,5.00
2019-05-26T08:32:15.115Z,6.97
2019-05-26T08:37:19.615Z,6.92
2019-05-26T08:42:27.181Z,5.42
2019-05-26T08:47:29.747Z,8.60
2019-05-26T08:52:33.959Z,5.37
2019-05-26T08:57:38.175Z,6.60
2019-05-26T09:02:42.406Z,3.62
2019-05-26T09:07:46.605Z,5.62
2019-05-26T09:13:00.246Z,4.95
2019-05-26T09:17:56.843Z,14.45
2019-05-26T09:23:01.180Z,10.03
2019-05-26T09:28:05.594Z,6.78
2019-05-26T09:33:09.818Z,8.53
2019-05-26T09:38:14.016Z,7.42
2019-05-26T09:43:18.228Z,5.70
2019-05-26T09:48:22.467Z,7.55
2019-05-26T09:53:26.681Z,5.85
2019-05-26T09:58:30.882Z,4.72
2019-05-26T10:03:35.392Z,7.60
2019-05-26T10:08:39.628Z,8.63
2019-05-26T10:13:43.876Z,7.22
2019-05-26T10:18:48.120Z,9.83
2019-05-26T10:23:53.318Z,6.53
2019-05-26T10:29:00.584Z,6.60
2019-05-26T10:34:03.753Z,6.03
2019-05-26T10:39:08.982Z,14.40
2019-05-26T10:44:13.195Z,7.05
2019-05-26T10:49:17.397Z,7.60
2019-05-26T10:54:21.595Z,6.80
2019-05-26T10:59:25.827Z,8.65
2019-05-26T11:04:30.038Z,6.00
2019-05-26T11:09:34.247Z,7.72
2019-05-26T11:14:38.444Z,8.45
2019-05-26T11:19:42.645Z,7.40
2019-05-26T11:24:46.882Z,6.33
2019-05-26T11:29:51.083Z,6.80
2019-05-26T11:35:01.592Z,6.75
2019-05-26T11:40:01.238Z,7.28
2019-05-26T11:45:06.328Z,8.15
2019-05-26T11:50:11.281Z,5.80
2019-05-26T11:55:15.688Z,5.53
2019-05-26T12:00:21.207Z,6.35
2019-05-26T12:05:25.412Z,6.28
2019-05-26T12:10:29.627Z,5.30
2019-05-26T12:15:33.893Z,5.62
2019-05-26T12:20:38.172Z,6.45
2019-05-26T12:25:42.654Z,5.60
2019-05-26T12:30:47.098Z,6.80
2019-05-26T12:35:51.353Z,7.92
2019-05-26T12:40:55.563Z,6.83
2019-05-26T12:45:59.768Z,6.67
2019-05-26T12:51:03.991Z,4.12
2019-05-26T12:56:08.208Z,4.72
2019-05-26T13:01:12.492Z,7.12
2019-05-26T13:06:17.702Z,5.60
2019-05-26T13:11:22.865Z,6.83
2019-05-26T13:16:27.286Z,6.47
2019-05-26T13:21:31.511Z,8.78
2019-05-26T13:26:35.689Z,5.62
2019-05-26T13:31:39.920Z,4.70
2019-05-26T13:36:44.529Z,5.33
2019-05-26T13:41:48.732Z,5.35
2019-05-26T13:46:52.987Z,5.42
2019-05-26T13:51:57.257Z,4.67
2019-05-26T13:57:01.462Z,8.30
2019-05-26T14:02:05.767Z,4.60
2019-05-26T14:07:10.017Z,9.35
2019-05-26T14:12:14.210Z,5.00
2019-05-26T14:17:18.707Z,4.65
2019-05-26T14:22:22.933Z,3.05
2019-05-26T14:27:27.278Z,4.87
2019-05-26T14:32:31.507Z,4.00
2019-05-26T14:37:35.774Z,2.60
2019-05-26T14:42:39.997Z,3.58
2019-05-26T14:47:44.235Z,6.60
2019-05-26T14:52:48.433Z,6.97
2019-05-26T14:57:52.767Z,4.72
2019-05-26T15:02:57.174Z,6.03
2019-05-26T15:08:01.654Z,3.55
2019-05-26T15:13:07.027Z,4.08
2019-05-26T15:18:11.201Z,6.97
2019-05-26T15:23:15.419Z,6.28
2019-05-26T15:28:19.646Z,4.45
2019-05-26T15:33:23.886Z,3.05
2019-05-26T15:38:42.009Z,5.37
2019-05-26T15:43:34.127Z,5.10
2019-05-26T15:48:38.477Z,5.85
2019-05-26T15:53:42.691Z,3.58
2019-05-26T15:58:46.919Z,3.90
2019-05-26T16:03:52.157Z,5.67
2019-05-26T16:08:56.358Z,8.05
2019-05-26T16:14:01.278Z,3.20
2019-05-26T16:19:05.597Z,3.25
2019-05-26T16:24:09.806Z,3.62
2019-05-26T16:29:14.059Z,3.17
2019-05-26T16:34:18.304Z,6.42
2019-05-26T16:39:36.118Z,4.78
2019-05-26T16:44:28.702Z,4.40
2019-05-26T16:49:33.013Z,2.45
2019-05-26T16:54:37.221Z,3.25
2019-05-26T16:59:41.424Z,3.05
2019-05-26T17:04:45.640Z,4.17
2019-05-26T17:09:49.916Z,4.50
2019-05-26T17:14:54.131Z,5.17
2019-05-26T17:19:58.342Z,1.95
2019-05-26T17:25:02.547Z,4.15
2019-05-26T17:30:07.628Z,3.35
2019-05-26T17:35:11.934Z,3.40
2019-05-26T17:40:16.143Z,4.03
2019-05-26T17:45:20.835Z,3.40
2019-05-26T17:50:25.089Z,3.17
2019-05-26T17:55:29.551Z,3.02
2019-05-26T18:00:34.632Z,3.87
2019-05-26T18:05:38.861Z,3.42
2019-05-26T18:10:44.198Z,3.87
2019-05-26T18:15:48.576Z,5.37
2019-05-26T18:20:52.784Z,5.28
2019-05-26T18:25:57.013Z,3.85
2019-05-26T18:31:02.386Z,3.55
2019-05-26T18:36:06.792Z,4.80
2019-05-26T18:41:11.592Z,6.87
2019-05-26T18:46:16.178Z,3.85
2019-05-26T18:51:20.519Z,4.00
2019-05-26T18:56:24.816Z,4.33
2019-05-26T19:01:29.056Z,4.75
2019-05-26T19:06:33.309Z,4.20
2019-05-26T19:11:37.848Z,3.30
2019-05-26T19:16:42.885Z,3.77
2019-05-26T19:21:47.147Z,3.75
2019-05-26T19:26:51.373Z,3.58
2019-05-26T19:31:55.686Z,3.15
2019-05-26T19:36:59.959Z,5.05
2019-05-26T19:42:06.502Z,3.65
2019-05-26T19:47:10.802Z,4.40
2019-05-26T19:52:15.119Z,4.65
2019-05-26T19:57:19.359Z,4.17
2019-05-26T20:02:23.719Z,7.05
2019-05-26T20:07:27.969Z,6.10
2019-05-26T20:12:32.231Z,5.37
2019-05-26T20:17:36.469Z,3.85
2019-05-26T20:22:40.737Z,5.78
2019-05-26T20:27:44.913Z,4.22
2019-05-26T20:32:49.128Z,5.55
2019-05-26T20:37:53.637Z,3.35
2019-05-26T20:42:57.874Z,6.45
2019-05-26T20:48:02.088Z,2.90
2019-05-26T20:53:06.289Z,3.95
2019-05-26T20:58:10.790Z,4.05
2019-05-26T21:03:15.005Z,4.30
2019-05-26T21:08:19.304Z,5.03
2019-05-26T21:13:23.653Z,4.30
2019-05-26T21:18:27.846Z,5.80
2019-05-26T21:23:32.082Z,6.72
2019-05-26T21:28:36.281Z,3.52
2019-05-26T21:33:40.498Z,3.40
2019-05-26T21:38:44.714Z,3.40
2019-05-26T21:43:48.918Z,4.17
2019-05-26T21:48:53.125Z,5.20
2019-05-26T21:53:57.430Z,4.03
2019-05-26T21:59:01.627Z,4.45
2019-05-26T22:04:06.388Z,5.55
2019-05-26T22:09:10.677Z,4.20
2019-05-26T22:14:14.881Z,6.45
2019-05-26T22:19:19.091Z,7.12
2019-05-26T22:24:23.330Z,5.78
2019-05-26T22:29:27.555Z,5.33
2019-05-26T22:34:31.769Z,9.75
2019-05-26T22:39:35.997Z,5.20
2019-05-26T22:44:40.216Z,4.53
2019-05-26T22:49:44.439Z,4.97
2019-05-26T22:54:48.719Z,4.50
2019-05-26T22:59:52.941Z,5.35
2019-05-26T23:04:57.156Z,4.08
2019-05-26T23:10:02.945Z,4.15
2019-05-26T23:15:08.235Z,6.17
2019-05-26T23:20:12.826Z,4.08
2019-05-26T23:25:17.265Z,4.25
2019-05-26T23:30:21.506Z,4.25
2019-05-26T23:35:25.706Z,5.30
2019-05-26T23:40:29.920Z,4.55
2019-05-26T23:45:34.169Z,4.00
2019-05-26T23:50:38.394Z,5.75
2019-05-26T23:55:42.611Z,4.53
